createdAt,value
2022-12-18T00:01:34.635Z,16.25
2022-12-18T00:04:09.240Z,17.25
2022-12-18T00:06:36.938Z,14.07
2022-12-18T00:09:04.595Z,16.33
2022-12-18T00:11:32.697Z,16.35
2022-12-18T00:14:01.393Z,14.77
2022-12-18T00:16:31.338Z,14.63
2022-12-18T00:18:59.522Z,15.02
2022-12-18T00:21:28.834Z,14.23
2022-12-18T00:23:57.048Z,14.52
2022-12-18T00:26:27.575Z,13.60
2022-12-18T00:29:03.827Z,13.88
2022-12-18T00:31:34.230Z,13.68
2022-12-18T00:34:02.622Z,14.20
2022-12-18T00:36:32.736Z,13.85
2022-12-18T00:39:02.562Z,13.82
2022-12-18T00:42:06.916Z,13.52
2022-12-18T00:47:01.941Z,13.35
2022-12-18T00:49:29.570Z,15.18
2022-12-18T00:51:57.069Z,15.00
2022-12-18T00:54:24.921Z,14.93
2022-12-18T00:56:52.480Z,13.80
2022-12-18T00:59:20.232Z,15.80
2022-12-18T01:01:48.778Z,14.60
2022-12-18T01:04:16.490Z,14.10
2022-12-18T01:06:46.850Z,12.25
2022-12-18T01:09:14.428Z,12.95
2022-12-18T01:11:42.009Z,12.95
2022-12-18T01:14:09.828Z,13.45
2022-12-18T01:16:38.881Z,12.73
2022-12-18T01:19:06.608Z,11.93
2022-12-18T01:21:34.833Z,12.85
2022-12-18T01:24:05.907Z,12.48
2022-12-18T01:26:33.699Z,14.80
2022-12-18T01:29:01.263Z,13.93
2022-12-18T01:31:33.099Z,13.60
2022-12-18T01:34:04.889Z,12.48
2022-12-18T01:36:34.780Z,14.70
2022-12-18T01:39:08.171Z,13.07
2022-12-18T01:41:54.997Z,12.10
2022-12-18T01:44:59.535Z,11.23
2022-12-18T01:47:49.667Z,10.13
2022-12-18T01:50:22.506Z,10.68
2022-12-18T01:52:54.089Z,11.10
2022-12-18T01:55:24.849Z,10.82
2022-12-18T01:57:56.629Z,10.88
2022-12-18T02:00:25.902Z,10.30
2022-12-18T02:02:54.618Z,11.77
2022-12-18T02:05:37.134Z,9.15
2022-12-18T02:08:13.755Z,9.95
2022-12-18T02:10:49.314Z,10.13
2022-12-18T02:13:44.400Z,9.73
2022-12-18T02:16:41.382Z,10.05
2022-12-18T02:19:45.791Z,9.35
2022-12-18T02:22:48.121Z,10.35
2022-12-18T02:25:25.642Z,10.45
2022-12-18T02:27:55.733Z,10.40
2022-12-18T02:30:24.086Z,11.00
2022-12-18T02:32:55.329Z,10.23
2022-12-18T02:35:29.634Z,9.98
2022-12-18T02:38:00.113Z,9.77
2022-12-18T02:40:31.647Z,11.70
2022-12-18T02:43:08.488Z,14.73
2022-12-18T02:48:04.505Z,16.52
2022-12-18T02:50:42.847Z,15.43
2022-12-18T02:53:34.733Z,15.52
2022-12-18T02:56:16.667Z,15.75
2022-12-18T02:58:53.661Z,17.70
2022-12-18T03:02:08.444Z,14.50
2022-12-18T03:04:48.706Z,5.65
2022-12-18T03:07:28.532Z,15.82
2022-12-18T03:10:00.169Z,14.02
2022-12-18T03:12:39.202Z,12.10
2022-12-18T03:15:17.210Z,11.68
2022-12-18T03:17:57.372Z,11.77
2022-12-18T03:20:32.057Z,12.95
2022-12-18T03:23:07.643Z,11.88
2022-12-18T03:25:39.877Z,11.30
2022-12-18T03:28:11.498Z,12.80
2022-12-18T03:30:42.629Z,11.50
2022-12-18T03:33:18.857Z,10.52
2022-12-18T03:35:47.924Z,10.30
2022-12-18T03:38:15.568Z,10.18
2022-12-18T03:40:56.880Z,10.50
2022-12-18T03:43:35.830Z,10.75
2022-12-18T03:46:26.546Z,11.57
2022-12-18T03:49:07.537Z,11.23
2022-12-18T03:52:25.965Z,9.90
2022-12-18T03:54:56.794Z,10.50
2022-12-18T03:57:29.516Z,10.98
2022-12-18T04:00:02.712Z,10.90
2022-12-18T04:02:46.634Z,10.65
2022-12-18T04:05:21.445Z,10.43
2022-12-18T04:07:52.558Z,9.88
2022-12-18T04:10:20.332Z,10.05
2022-12-18T04:12:48.295Z,10.02
2022-12-18T04:15:16.876Z,9.70
2022-12-18T04:17:50.208Z,10.38
2022-12-18T04:20:21.068Z,9.40
2022-12-18T04:22:49.217Z,10.00
2022-12-18T04:25:16.853Z,9.93
2022-12-18T04:27:57.574Z,10.20
2022-12-18T04:30:25.314Z,9.70
2022-12-18T04:32:53.202Z,9.40
2022-12-18T04:35:21.654Z,9.88
2022-12-18T04:37:49.293Z,10.98
2022-12-18T04:40:17.196Z,10.55
2022-12-18T04:42:47.691Z,9.68
2022-12-18T04:45:15.248Z,10.13
2022-12-18T04:47:42.935Z,10.02
2022-12-18T04:50:10.553Z,9.65
2022-12-18T04:52:38.173Z,10.23
2022-12-18T04:55:06.221Z,9.75
2022-12-18T04:57:33.767Z,9.95
2022-12-18T05:00:01.454Z,11.38
2022-12-18T05:02:29.174Z,9.55
2022-12-18T05:04:56.806Z,10.60
2022-12-18T05:07:24.339Z,11.23
2022-12-18T05:09:51.898Z,10.10
2022-12-18T05:12:19.450Z,11.05
2022-12-18T05:14:46.982Z,9.50
2022-12-18T05:17:14.486Z,10.50
2022-12-18T05:19:42.036Z,9.55
2022-12-18T05:22:09.868Z,9.98
2022-12-18T05:24:37.518Z,10.07
2022-12-18T05:27:05.113Z,9.30
2022-12-18T05:29:32.644Z,10.35
2022-12-18T05:32:00.223Z,9.80
2022-12-18T05:34:27.729Z,9.55
2022-12-18T05:36:55.256Z,10.02
2022-12-18T05:39:22.816Z,9.73
2022-12-18T05:41:50.262Z,11.30
2022-12-18T05:44:17.967Z,10.45
2022-12-18T05:46:45.599Z,10.35
2022-12-18T05:49:13.127Z,10.43
2022-12-18T05:51:40.639Z,12.52
2022-12-18T05:54:08.890Z,9.25
2022-12-18T05:56:36.358Z,10.40
2022-12-18T05:59:03.927Z,13.23
2022-12-18T06:01:31.645Z,9.27
2022-12-18T06:04:00.189Z,9.80
2022-12-18T06:06:29.849Z,9.77
2022-12-18T06:08:58.139Z,8.95
2022-12-18T06:11:27.571Z,9.65
2022-12-18T06:13:59.018Z,8.88
2022-12-18T06:16:28.176Z,10.80
2022-12-18T06:19:02.967Z,9.75
2022-12-18T06:21:31.019Z,10.80
2022-12-18T06:23:59.894Z,9.80
2022-12-18T06:26:28.536Z,21.15
2022-12-18T06:28:57.126Z,17.08
2022-12-18T06:31:25.628Z,13.15
2022-12-18T06:33:53.115Z,13.18
2022-12-18T06:36:21.798Z,13.93
2022-12-18T06:38:49.424Z,22.70
2022-12-18T06:41:19.538Z,16.90
2022-12-18T06:43:50.157Z,16.90
2022-12-18T06:46:18.116Z,13.40
2022-12-18T06:48:49.850Z,12.55
2022-12-18T06:51:21.747Z,11.25
2022-12-18T06:53:50.250Z,13.70
2022-12-18T06:56:18.071Z,11.23
2022-12-18T06:58:45.737Z,12.18
2022-12-18T07:01:14.059Z,10.65
2022-12-18T07:03:43.159Z,12.80
2022-12-18T07:06:20.376Z,11.30
2022-12-18T07:08:48.839Z,12.68
2022-12-18T07:11:17.322Z,10.40
2022-12-18T07:13:45.080Z,12.57
2022-12-18T07:16:24.771Z,11.18
2022-12-18T07:18:55.877Z,10.88
2022-12-18T07:21:25.052Z,11.20
2022-12-18T07:23:53.197Z,12.07
2022-12-18T07:26:29.837Z,11.23
2022-12-18T07:28:58.889Z,12.48
2022-12-18T07:31:27.458Z,12.18
2022-12-18T07:33:56.417Z,11.95
2022-12-18T07:36:24.561Z,12.25
2022-12-18T07:38:53.719Z,12.48
2022-12-18T07:41:21.879Z,12.60
2022-12-18T07:43:49.450Z,13.07
2022-12-18T07:46:17.164Z,13.70
2022-12-18T07:48:49.292Z,11.45
2022-12-18T07:51:24.875Z,10.68
2022-12-18T07:53:52.787Z,11.50
2022-12-18T07:56:29.979Z,11.43
2022-12-18T07:58:58.731Z,11.45
2022-12-18T08:01:26.812Z,10.73
2022-12-18T08:03:54.803Z,11.77
2022-12-18T08:06:24.130Z,12.20
2022-12-18T08:08:54.873Z,13.63
2022-12-18T08:11:24.556Z,12.27
2022-12-18T08:13:52.655Z,12.07
2022-12-18T08:16:20.884Z,13.18
2022-12-18T08:18:49.555Z,13.13
2022-12-18T08:21:22.283Z,11.45
2022-12-18T08:23:51.766Z,11.00
2022-12-18T08:26:20.890Z,13.02
2022-12-18T08:28:49.206Z,13.07
2022-12-18T08:31:19.608Z,13.05
2022-12-18T08:33:50.583Z,11.25
2022-12-18T08:36:18.601Z,11.45
2022-12-18T08:38:47.181Z,14.65
2022-12-18T08:41:16.798Z,12.18
2022-12-18T08:44:03.091Z,11.60
2022-12-18T08:46:36.723Z,13.10
2022-12-18T08:49:05.004Z,14.32
2022-12-18T08:51:33.440Z,13.43
2022-12-18T08:54:01.317Z,13.38
2022-12-18T08:56:29.395Z,12.93
2022-12-18T08:58:57.606Z,14.05
2022-12-18T09:01:25.643Z,16.38
2022-12-18T09:03:53.400Z,17.85
2022-12-18T09:06:22.802Z,19.88
2022-12-18T09:08:50.702Z,16.35
2022-12-18T09:11:26.079Z,15.18
2022-12-18T09:13:55.009Z,11.63
2022-12-18T09:16:28.656Z,12.48
2022-12-18T09:19:03.167Z,10.90
2022-12-18T09:21:42.179Z,10.32
2022-12-18T09:24:15.700Z,11.07
2022-12-18T09:27:01.817Z,9.70
2022-12-18T09:29:29.754Z,10.15
2022-12-18T09:31:57.552Z,10.60
2022-12-18T09:34:25.154Z,9.25
2022-12-18T09:36:52.717Z,10.00
2022-12-18T09:39:21.860Z,9.80
2022-12-18T09:41:56.971Z,9.88
2022-12-18T09:44:29.286Z,10.05
2022-12-18T09:47:29.382Z,12.75
2022-12-18T09:50:05.009Z,10.32
2022-12-18T09:52:40.829Z,10.43
2022-12-18T09:55:26.264Z,10.15
2022-12-18T09:58:05.921Z,10.35
2022-12-18T10:00:46.295Z,9.68
2022-12-18T10:03:16.755Z,10.23
2022-12-18T10:06:07.022Z,10.15
2022-12-18T10:08:46.613Z,9.73
2022-12-18T10:11:16.997Z,8.90
2022-12-18T10:14:02.365Z,8.98
2022-12-18T10:17:03.427Z,9.13
2022-12-18T10:19:40.510Z,9.27
2022-12-18T10:22:37.200Z,9.25
2022-12-18T10:25:46.604Z,9.10
2022-12-18T10:28:16.028Z,9.07
2022-12-18T10:30:44.425Z,8.65
2022-12-18T10:33:24.421Z,8.75
2022-12-18T10:35:52.804Z,8.38
2022-12-18T10:38:20.378Z,9.30
2022-12-18T10:40:55.959Z,9.23
2022-12-18T10:43:25.365Z,8.82
2022-12-18T10:46:21.180Z,8.88
2022-12-18T10:48:48.747Z,9.07
2022-12-18T10:51:31.681Z,9.13
2022-12-18T10:54:22.601Z,8.60
2022-12-18T10:56:50.360Z,8.55
2022-12-18T10:59:19.617Z,8.05
2022-12-18T11:01:56.126Z,8.20
2022-12-18T11:04:26.439Z,8.20
2022-12-18T11:06:58.685Z,8.02
2022-12-18T11:09:32.893Z,8.35
2022-12-18T11:12:03.628Z,9.10
2022-12-18T11:14:34.868Z,8.20
2022-12-18T11:17:24.823Z,7.75
2022-12-18T11:19:58.353Z,8.90
2022-12-18T11:22:31.975Z,8.57
2022-12-18T11:25:34.627Z,7.90
2022-12-18T11:28:05.812Z,8.05
2022-12-18T11:30:37.576Z,8.30
2022-12-18T11:33:20.600Z,8.25
2022-12-18T11:36:00.578Z,8.15
2022-12-18T11:38:41.341Z,8.82
2022-12-18T11:41:23.035Z,9.23
2022-12-18T11:43:57.012Z,9.07
2022-12-18T11:46:33.480Z,8.90
2022-12-18T11:49:35.371Z,9.38
2022-12-18T11:52:10.980Z,9.75
2022-12-18T11:54:38.543Z,9.50
2022-12-18T11:57:20.565Z,8.88
2022-12-18T11:59:47.971Z,9.27
2022-12-18T12:02:25.820Z,10.02
2022-12-18T12:05:21.035Z,9.50
2022-12-18T12:07:53.971Z,9.48
2022-12-18T12:10:30.137Z,9.50
2022-12-18T12:13:15.474Z,10.02
2022-12-18T12:16:11.334Z,9.88
2022-12-18T12:19:03.251Z,9.43
2022-12-18T12:21:46.966Z,10.63
2022-12-18T12:24:48.226Z,9.90
2022-12-18T12:27:50.757Z,10.23
2022-12-18T12:30:37.477Z,10.52
2022-12-18T12:33:13.814Z,10.40
2022-12-18T12:35:48.100Z,10.60
2022-12-18T12:38:25.302Z,9.90
2022-12-18T12:41:02.789Z,10.25
2022-12-18T12:43:33.697Z,11.52
2022-12-18T12:46:09.925Z,12.55
2022-12-18T12:48:47.582Z,10.77
2022-12-18T12:51:24.944Z,11.82
2022-12-18T12:53:55.467Z,11.35
2022-12-18T12:56:25.613Z,11.77
2022-12-18T12:59:14.852Z,10.93
2022-12-18T13:01:50.141Z,11.85
2022-12-18T13:06:57.384Z,11.02
2022-12-18T13:09:25.156Z,11.82
2022-12-18T13:12:10.998Z,11.15
2022-12-18T13:14:41.098Z,11.63
2022-12-18T13:17:20.939Z,11.05
2022-12-18T13:20:04.236Z,10.63
2022-12-18T13:22:37.837Z,10.25
2022-12-18T13:25:33.007Z,11.40
2022-12-18T13:28:06.365Z,10.50
2022-12-18T13:30:33.953Z,11.35
2022-12-18T13:33:17.599Z,9.70
2022-12-18T13:35:47.903Z,9.68
2022-12-18T13:38:31.998Z,9.15
2022-12-18T13:41:01.523Z,9.35
2022-12-18T13:43:47.994Z,9.10
2022-12-18T13:49:02.426Z,8.70
2022-12-18T13:51:32.443Z,8.77
2022-12-18T13:54:28.623Z,9.73
2022-12-18T13:56:56.135Z,9.27
2022-12-18T13:59:25.308Z,8.57
2022-12-18T14:02:02.779Z,9.73
2022-12-18T14:04:33.955Z,8.90
2022-12-18T14:07:18.004Z,8.20
2022-12-18T14:09:50.564Z,8.15
2022-12-18T14:12:43.952Z,8.30
2022-12-18T14:15:28.004Z,9.77
2022-12-18T14:18:00.089Z,9.73
2022-12-18T14:20:30.584Z,8.77
2022-12-18T14:23:01.201Z,8.40
2022-12-18T14:25:31.412Z,8.63
2022-12-18T14:28:08.719Z,9.35
2022-12-18T14:30:39.447Z,9.27
2022-12-18T14:33:09.589Z,9.43
2022-12-18T14:35:42.438Z,9.23
2022-12-18T14:38:26.219Z,8.77
2022-12-18T14:40:59.717Z,9.10
2022-12-18T14:43:29.545Z,8.75
2022-12-18T14:45:57.923Z,11.90
2022-12-18T14:48:43.497Z,9.60
2022-12-18T14:51:13.582Z,9.75
2022-12-18T14:53:50.669Z,9.82
2022-12-18T14:56:27.264Z,10.40
2022-12-18T14:58:56.617Z,9.50
2022-12-18T15:01:28.457Z,10.25
2022-12-18T15:03:58.031Z,9.38
2022-12-18T15:06:33.817Z,10.68
2022-12-18T15:09:04.774Z,10.55
2022-12-18T15:11:45.469Z,11.32
2022-12-18T15:14:39.640Z,10.40
2022-12-18T15:17:19.754Z,10.80
2022-12-18T15:19:49.286Z,11.07
2022-12-18T15:22:28.831Z,10.38
2022-12-18T15:24:58.535Z,10.73
2022-12-18T15:27:35.859Z,11.25
2022-12-18T15:30:19.583Z,10.60
2022-12-18T15:32:47.484Z,12.10
2022-12-18T15:35:23.372Z,11.40
2022-12-18T15:37:52.501Z,11.10
2022-12-18T15:40:23.580Z,13.55
2022-12-18T15:43:13.835Z,13.65
2022-12-18T15:45:41.444Z,20.67
2022-12-18T15:48:23.027Z,22.35
2022-12-18T15:50:57.713Z,23.85
2022-12-18T15:53:29.168Z,25.05
2022-12-18T15:56:14.844Z,27.33
2022-12-18T15:58:42.364Z,24.88
2022-12-18T16:01:11.773Z,46.33
2022-12-18T16:03:39.927Z,44.33
2022-12-18T16:06:07.801Z,71.55
2022-12-18T16:08:36.070Z,58.97
2022-12-18T16:11:05.149Z,55.67
2022-12-18T16:13:32.545Z,32.60
2022-12-18T16:16:00.453Z,42.13
2022-12-18T16:18:28.002Z,45.17
2022-12-18T16:20:55.390Z,41.85
2022-12-18T16:23:22.794Z,31.55
2022-12-18T16:25:51.142Z,30.48
2022-12-18T16:28:18.629Z,30.42
2022-12-18T16:30:46.054Z,29.10
2022-12-18T16:33:13.573Z,28.98
2022-12-18T16:35:41.245Z,31.33
2022-12-18T16:38:10.216Z,28.92
2022-12-18T16:40:59.768Z,28.67
2022-12-18T16:43:29.483Z,26.67
2022-12-18T16:45:59.961Z,28.55
2022-12-18T16:48:27.462Z,28.75
2022-12-18T16:51:02.705Z,27.52
2022-12-18T16:53:33.027Z,27.85
2022-12-18T16:56:00.702Z,30.25
2022-12-18T16:58:29.231Z,29.15
2022-12-18T17:00:56.754Z,29.85
2022-12-18T17:03:24.350Z,28.05
2022-12-18T17:05:53.349Z,27.42
2022-12-18T17:08:20.845Z,30.92
2022-12-18T17:10:48.286Z,28.83
2022-12-18T17:13:15.757Z,27.45
2022-12-18T17:15:43.389Z,30.38
2022-12-18T17:18:11.511Z,36.17
2022-12-18T17:20:39.877Z,41.65
2022-12-18T17:23:07.369Z,36.22
2022-12-18T17:25:34.810Z,38.22
2022-12-18T17:28:02.400Z,37.25
2022-12-18T17:30:29.839Z,41.03
2022-12-18T17:32:59.374Z,40.03
2022-12-18T17:35:26.778Z,34.83
2022-12-18T17:37:59.262Z,37.72
2022-12-18T17:40:26.802Z,33.03
2022-12-18T17:42:56.414Z,36.88
2022-12-18T17:45:23.811Z,38.00
2022-12-18T17:47:55.419Z,37.35
2022-12-18T17:50:25.729Z,36.00
2022-12-18T17:52:56.931Z,34.10
2022-12-18T17:55:24.981Z,35.40
2022-12-18T17:57:52.540Z,38.22
2022-12-18T18:00:20.416Z,38.13
2022-12-18T18:02:48.143Z,38.97
2022-12-18T18:05:15.870Z,46.22
2022-12-18T18:07:45.572Z,49.90
2022-12-18T18:11:27.501Z,154.07
2022-12-18T18:14:00.746Z,130.90
2022-12-18T18:16:39.901Z,109.32
2022-12-18T18:19:11.045Z,87.30
2022-12-18T18:21:45.768Z,79.00
2022-12-18T18:27:09.698Z,48.00
2022-12-18T18:29:37.090Z,44.25
2022-12-18T18:32:04.882Z,40.47
2022-12-18T18:34:32.873Z,42.00
2022-12-18T18:37:01.739Z,38.75
2022-12-18T18:39:29.619Z,42.65
2022-12-18T18:41:57.137Z,42.28
2022-12-18T18:44:26.754Z,37.97
2022-12-18T18:46:58.098Z,41.05
2022-12-18T18:49:28.356Z,39.80
2022-12-18T18:51:57.333Z,39.60
2022-12-18T18:54:25.800Z,42.47
2022-12-18T18:57:19.566Z,40.92
2022-12-18T18:59:41.520Z,40.33
2022-12-18T19:02:16.103Z,42.17
2022-12-18T19:04:46.156Z,39.83
2022-12-18T19:07:23.868Z,44.17
2022-12-18T19:10:04.838Z,39.40
2022-12-18T19:12:52.559Z,42.10
2022-12-18T19:15:20.152Z,38.42
2022-12-18T19:17:47.911Z,38.75
2022-12-18T19:20:18.342Z,38.72
2022-12-18T19:22:54.356Z,35.08
2022-12-18T19:25:38.562Z,46.30
2022-12-18T19:28:21.174Z,42.73
2022-12-18T19:30:50.825Z,43.60
2022-12-18T19:36:28.373Z,76.82
2022-12-18T19:38:59.101Z,88.93
2022-12-18T19:41:29.106Z,131.13
2022-12-18T19:43:58.950Z,158.68
2022-12-18T19:46:26.492Z,100.95
2022-12-18T19:48:53.984Z,75.20
2022-12-18T19:51:24.394Z,81.03
2022-12-18T19:53:58.212Z,85.15
2022-12-18T19:56:28.887Z,54.77
2022-12-18T19:58:56.494Z,55.38
2022-12-18T20:01:25.502Z,63.78
2022-12-18T20:03:55.340Z,77.55
2022-12-18T20:06:26.465Z,76.22
2022-12-18T20:09:00.876Z,76.45
2022-12-18T20:11:32.102Z,69.15
2022-12-18T20:14:03.438Z,56.05
2022-12-18T20:16:30.945Z,69.03
2022-12-18T20:18:59.053Z,56.92
2022-12-18T20:21:26.758Z,55.72
2022-12-18T20:23:55.848Z,40.53
2022-12-18T20:26:24.069Z,56.83
2022-12-18T20:28:51.826Z,48.17
2022-12-18T20:31:19.573Z,44.38
2022-12-18T20:33:48.689Z,34.17
2022-12-18T20:36:24.628Z,40.17
2022-12-18T20:38:57.136Z,49.80
2022-12-18T20:41:51.164Z,41.17
2022-12-18T20:44:22.547Z,50.38
2022-12-18T20:46:54.048Z,37.88
2022-12-18T20:49:22.172Z,36.03
2022-12-18T20:52:30.315Z,31.63
2022-12-18T20:54:58.951Z,46.67
2022-12-18T20:57:31.147Z,35.60
2022-12-18T21:00:03.665Z,38.20
2022-12-18T21:02:32.112Z,41.33
2022-12-18T21:05:00.882Z,33.38
2022-12-18T21:07:28.507Z,33.42
2022-12-18T21:09:57.227Z,31.25
2022-12-18T21:12:41.670Z,31.33
2022-12-18T21:15:15.902Z,29.58
2022-12-18T21:17:45.095Z,5.72
2022-12-18T21:20:17.865Z,32.40
2022-12-18T21:22:47.139Z,33.60
2022-12-18T21:25:16.509Z,50.22
2022-12-18T21:27:44.168Z,43.33
2022-12-18T21:30:12.144Z,47.42
2022-12-18T21:32:39.980Z,60.10
2022-12-18T21:35:07.968Z,43.90
2022-12-18T21:37:36.866Z,46.75
2022-12-18T21:40:06.422Z,47.80
2022-12-18T21:42:52.995Z,64.10
2022-12-18T21:45:20.675Z,88.13
2022-12-18T21:47:48.314Z,64.00
2022-12-18T21:50:16.102Z,84.90
2022-12-18T21:52:43.783Z,73.30
2022-12-18T21:55:11.477Z,7.57
2022-12-18T21:57:39.556Z,44.10
2022-12-18T22:00:25.296Z,32.92
2022-12-18T22:03:18.895Z,33.20
2022-12-18T22:05:46.955Z,4.65
2022-12-18T22:08:18.211Z,40.88
2022-12-18T22:10:45.823Z,38.60
2022-12-18T22:13:13.804Z,50.33
2022-12-18T22:15:41.520Z,36.95
2022-12-18T22:18:11.728Z,5.75
2022-12-18T22:20:39.493Z,26.95
2022-12-18T22:23:09.202Z,30.20
2022-12-18T22:25:39.796Z,43.95
2022-12-18T22:28:26.396Z,24.90
2022-12-18T22:30:59.664Z,36.15
2022-12-18T22:33:27.870Z,31.95
2022-12-18T22:35:55.545Z,34.65
2022-12-18T22:38:23.153Z,42.75
2022-12-18T22:40:50.746Z,7.65
2022-12-18T22:43:18.523Z,34.40
2022-12-18T22:45:47.485Z,28.17
2022-12-18T22:48:15.399Z,31.05
2022-12-18T22:50:44.185Z,32.78
2022-12-18T22:53:11.774Z,5.22
2022-12-18T22:55:39.961Z,31.75
2022-12-18T22:58:08.215Z,8.77
2022-12-18T23:00:35.917Z,27.70
2022-12-18T23:03:03.994Z,1.85
2022-12-18T23:05:34.928Z,25.52
2022-12-18T23:08:02.644Z,30.17
2022-12-18T23:10:51.299Z,23.52
2022-12-18T23:13:18.916Z,23.42
2022-12-18T23:15:47.467Z,23.88
2022-12-18T23:18:15.435Z,7.20
2022-12-18T23:20:46.445Z,20.98
2022-12-18T23:23:15.171Z,20.17
2022-12-18T23:25:44.090Z,2.17
2022-12-18T23:28:11.743Z,19.88
2022-12-18T23:30:41.460Z,19.05
2022-12-18T23:33:09.097Z,17.95
2022-12-18T23:35:37.843Z,19.15
2022-12-18T23:38:05.486Z,18.85
2022-12-18T23:40:33.134Z,19.33
2022-12-18T23:43:01.017Z,20.75
2022-12-18T23:45:28.786Z,20.85
2022-12-18T23:47:57.511Z,20.92
2022-12-18T23:50:29.142Z,22.52
2022-12-18T23:53:04.778Z,24.13
2022-12-18T23:55:38.783Z,28.42
2022-12-18T23:58:17.015Z,31.98
